Time;durP1;ratioP1;P1;durP2;ratioP2;P2;SDS_P1;SDS_P2;PMS_P1;PMS_P2;Temp;Humidity;BMP_temperature;BMP_pressure;BME280_temperature;BME280_humidity;BME280_pressure;Samples;Min_cycle;Max_cycle;Signal;HPM_P1;HPM_P2
2022/08/09 00:01:48;;;;;;;7.10;6.00;;;;;;;18.16;100.00;97671.49;109900;1250;69420;-75
2022/08/09 00:04:23;;;;;;;10.20;7.70;;;;;;;18.17;100.00;97667.05;109785;1250;58951;-75
2022/08/09 00:07:04;;;;;;;10.40;7.80;;;;;;;18.17;100.00;97664.92;109828;1250;58898;-75
2022/08/09 00:09:39;;;;;;;9.70;7.50;;;;;;;18.16;99.28;97666.31;109841;1250;70754;-75
2022/08/09 00:12:10;;;;;;;10.20;7.80;;;;;;;18.15;98.85;97661.03;109616;1250;68674;-75
2022/08/09 00:14:52;;;;;;;11.80;8.70;;;;;;;18.15;100.00;97661.56;109671;1250;69260;-77
2022/08/09 00:17:24;;;;;;;12.80;8.70;;;;;;;18.14;99.90;97662.91;109799;1250;58914;-76
2022/08/09 00:20:14;;;;;;;9.80;8.10;;;;;;;18.14;99.55;97668.80;109626;1250;58952;-75
2022/08/09 00:22:45;;;;;;;8.70;5.90;;;;;;;18.13;99.12;97669.76;109827;1250;69072;-74
2022/08/09 00:25:16;;;;;;;12.80;8.90;;;;;;;18.13;98.53;97666.09;109993;1250;68558;-76
2022/08/09 00:28:00;;;;;;;10.00;8.10;;;;;;;18.13;99.70;97669.59;109863;1250;68463;-75
2022/08/09 00:30:32;;;;;;;10.80;8.20;;;;;;;18.13;100.00;97666.77;109807;1250;58894;-77
2022/08/09 00:33:04;;;;;;;10.40;8.10;;;;;;;18.12;98.07;97660.17;109991;1250;58942;-75
2022/08/09 00:35:33;;;;;;;15.10;11.60;;;;;;;18.13;98.81;97661.42;109831;1250;70810;-75
2022/08/09 00:38:12;;;;;;;13.40;10.10;;;;;;;18.13;99.48;97657.95;109952;1250;68643;-75
2022/08/09 00:40:44;;;;;;;11.70;8.90;;;;;;;18.13;98.50;97658.80;109842;1250;69392;-76
2022/08/09 00:43:22;;;;;;;12.20;8.90;;;;;;;18.15;97.80;97657.73;109761;1249;58870;-77
2022/08/09 00:46:13;;;;;;;12.90;10.90;;;;;;;18.17;98.62;97657.55;109961;1250;58871;-76
2022/08/09 00:49:04;;;;;;;11.10;9.10;;;;;;;18.17;99.50;97663.89;109855;1250;70745;-77
2022/08/09 00:51:36;;;;;;;10.40;7.70;;;;;;;18.17;99.71;97664.06;109923;1250;68242;-76
2022/08/09 00:54:24;;;;;;;11.70;9.00;;;;;;;18.18;98.97;97665.89;109760;1250;69400;-76
2022/08/09 00:57:04;;;;;;;10.20;7.80;;;;;;;18.18;99.74;97662.69;109875;1250;58883;-77
2022/08/09 00:59:42;;;;;;;10.80;8.60;;;;;;;18.18;98.61;97662.88;109848;1250;58876;-76
2022/08/09 01:02:19;;;;;;;9.50;7.00;;;;;;;18.18;99.39;97659.05;109944;1249;69955;-75
2022/08/09 01:05:00;;;;;;;9.00;7.60;;;;;;;18.19;97.18;97659.44;109734;1249;68565;-76
2022/08/09 01:07:41;;;;;;;9.50;7.50;;;;;;;18.20;96.69;97667.08;109698;1247;68343;-75
2022/08/09 01:10:47;;;;;;;8.10;7.00;;;;;;;18.22;98.71;97674.30;109960;1249;58961;-75
2022/08/09 01:13:29;;;;;;;8.20;6.60;;;;;;;18.24;98.51;97677.45;109769;1250;58933;-76
2022/08/09 01:16:23;;;;;;;6.70;5.50;;;;;;;18.25;96.80;97683.89;109830;1250;69806;-76
2022/08/09 01:18:58;;;;;;;8.30;5.80;;;;;;;18.24;95.88;97689.75;109863;1250;69413;-77
2022/08/09 01:21:48;;;;;;;7.50;6.20;;;;;;;18.24;95.28;97690.87;109858;1250;68665;-77
2022/08/09 01:24:39;;;;;;;8.90;7.10;;;;;;;18.22;95.46;97689.08;110101;1250;58958;-76
2022/08/09 01:27:14;;;;;;;7.90;6.40;;;;;;;18.21;98.37;97687.48;110076;1247;58873;-76
2022/08/09 01:29:56;;;;;;;7.60;5.90;;;;;;;18.19;97.10;97688.88;109973;1249;70721;-77
2022/08/09 01:32:39;;;;;;;11.20;7.90;;;;;;;18.18;97.61;97687.05;110086;1249;68538;-76
2022/08/09 01:35:25;;;;;;;11.00;7.20;;;;;;;18.17;99.96;97687.18;109828;1250;69449;-77
2022/08/09 01:38:11;;;;;;;8.50;6.90;;;;;;;18.15;98.44;97688.23;109845;1248;58935;-77
2022/08/09 01:40:50;;;;;;;9.80;7.70;;;;;;;18.14;96.74;97691.91;109758;1250;58961;-76
2022/08/09 01:43:37;;;;;;;10.40;7.50;;;;;;;18.13;99.07;97695.52;110003;1250;70770;-77
2022/08/09 01:46:32;;;;;;;13.90;10.30;;;;;;;18.11;99.61;97700.14;110282;1249;68616;-76
2022/08/09 01:49:21;;;;;;;11.80;8.90;;;;;;;18.11;98.83;97699.95;110000;1248;67954;-76
2022/08/09 01:51:55;;;;;;;12.40;9.70;;;;;;;18.11;98.44;97697.60;109968;1250;58910;-75
2022/08/09 01:54:31;;;;;;;10.30;8.90;;;;;;;18.12;99.34;97699.16;109951;1249;59262;-76
2022/08/09 01:57:10;;;;;;;10.90;8.30;;;;;;;18.11;98.93;97697.63;109803;1250;69966;-75
2022/08/09 01:59:47;;;;;;;10.00;8.60;;;;;;;18.11;98.35;97695.12;109901;1250;68622;-76
2022/08/09 02:02:25;;;;;;;13.90;10.40;;;;;;;18.11;97.93;97695.30;110023;1250;68590;-75
2022/08/09 02:05:07;;;;;;;11.00;9.10;;;;;;;18.10;99.87;97695.21;110006;1250;58924;-75
2022/08/09 02:07:48;;;;;;;12.10;9.50;;;;;;;18.10;99.98;97691.08;109925;1250;58872;-77
2022/08/09 02:10:42;;;;;;;13.40;9.70;;;;;;;18.08;100.00;97689.63;109855;1250;70052;-75
2022/08/09 02:13:22;;;;;;;14.50;10.20;;;;;;;18.07;100.00;97695.02;109954;1250;68956;-76
2022/08/09 02:16:09;;;;;;;13.50;9.40;;;;;;;18.06;100.00;97692.50;109878;1249;69222;-76
2022/08/09 02:18:41;;;;;;;11.00;8.80;;;;;;;18.05;100.00;97696.26;110112;1250;58951;-76
2022/08/09 02:21:20;;;;;;;12.60;8.70;;;;;;;18.03;100.00;97695.42;110091;1250;58917;-76
2022/08/09 02:23:58;;;;;;;11.90;8.90;;;;;;;18.02;100.00;97693.58;110099;1250;69776;-76
2022/08/09 02:26:34;;;;;;;11.10;8.90;;;;;;;18.01;100.00;97695.46;110060;1250;67539;-78
2022/08/09 02:29:28;;;;;;;10.00;8.10;;;;;;;17.99;100.00;97696.55;110353;1249;68709;-76
2022/08/09 02:32:10;;;;;;;10.80;8.60;;;;;;;17.97;100.00;97696.31;110116;1250;59346;-77
2022/08/09 02:34:44;;;;;;;8.30;7.00;;;;;;;17.97;100.00;97694.42;109898;1251;58824;-76
2022/08/09 02:37:27;;;;;;;9.10;8.10;;;;;;;17.97;100.00;97695.65;110066;1250;70017;-78
2022/08/09 02:40:09;;;;;;;10.20;8.00;;;;;;;17.97;99.88;97696.21;109966;1250;68703;-77
2022/08/09 02:42:44;;;;;;;9.00;8.10;;;;;;;17.95;100.00;97698.52;109795;1250;68764;-77
2022/08/09 02:45:29;;;;;;;8.50;7.20;;;;;;;17.94;100.00;97701.06;109964;1249;58886;-77
2022/08/09 02:48:06;;;;;;;8.80;7.20;;;;;;;17.94;100.00;97704.06;110033;1250;58876;-75
2022/08/09 02:51:00;;;;;;;9.70;8.20;;;;;;;17.94;100.00;97704.77;109895;1250;70775;-76
2022/08/09 02:53:38;;;;;;;11.70;8.20;;;;;;;17.93;100.00;97705.40;110015;1250;69343;-76
2022/08/09 02:56:22;;;;;;;10.40;8.50;;;;;;;17.93;100.00;97710.39;109939;1250;69470;-77
2022/08/09 02:59:04;;;;;;;8.40;6.10;;;;;;;17.93;100.00;97711.55;109837;1250;58952;-76
2022/08/09 03:01:38;;;;;;;8.40;6.80;;;;;;;17.93;100.00;97717.80;109957;1250;58859;-76
2022/08/09 03:04:30;;;;;;;8.70;7.00;;;;;;;17.93;99.79;97718.28;109962;1249;69754;-77
2022/08/09 03:07:03;;;;;;;8.30;7.00;;;;;;;17.93;98.89;97717.56;108495;1249;1967082;-76
2022/08/09 03:09:44;;;;;;;8.30;6.50;;;;;;;17.94;99.24;97720.11;110015;1249;68664;-76
2022/08/09 03:12:26;;;;;;;7.90;6.60;;;;;;;17.96;98.25;97720.80;110094;1249;58896;-76
2022/08/09 03:14:59;;;;;;;9.50;7.60;;;;;;;17.96;97.51;97721.86;109858;1251;58824;-76
2022/08/09 03:17:32;;;;;;;10.20;8.20;;;;;;;17.97;98.13;97723.88;109949;1250;70543;-76
2022/08/09 03:20:06;;;;;;;9.40;7.70;;;;;;;17.97;98.10;97726.98;109943;1250;68386;-76
2022/08/09 03:22:45;;;;;;;8.30;7.20;;;;;;;17.99;99.31;97732.88;110009;1250;69431;-75
2022/08/09 03:25:29;;;;;;;9.90;7.50;;;;;;;18.01;99.25;97732.75;110012;1250;59118;-76
2022/08/09 03:28:20;;;;;;;9.40;7.50;;;;;;;18.04;99.98;97735.67;110026;1250;58930;-75
2022/08/09 03:30:54;;;;;;;10.10;7.80;;;;;;;18.06;100.00;97734.77;110126;1250;69007;-77
2022/08/09 03:33:26;;;;;;;9.60;8.20;;;;;;;18.07;99.16;97732.41;110424;1249;68657;-77
2022/08/09 03:36:17;;;;;;;8.50;7.60;;;;;;;18.08;99.78;97737.08;110028;1250;70834;-77
2022/08/09 03:38:48;;;;;;;9.70;8.30;;;;;;;18.09;100.00;97743.88;110180;1250;59310;-76
2022/08/09 03:41:18;;;;;;;10.00;8.00;;;;;;;18.09;100.00;97742.77;109721;1250;58905;-76
2022/08/09 03:43:59;;;;;;;8.50;7.30;;;;;;;18.10;99.82;97742.17;110160;1250;71185;-76
2022/08/09 03:46:37;;;;;;;9.50;7.80;;;;;;;18.11;99.12;97743.29;109854;1250;69414;-77
2022/08/09 03:49:10;;;;;;;10.40;8.20;;;;;;;18.12;100.00;97742.14;109947;1249;69627;-76
2022/08/09 03:51:49;;;;;;;9.00;7.70;;;;;;;18.12;99.02;97736.64;110086;1250;58976;-77
2022/08/09 03:54:36;;;;;;;9.70;7.90;;;;;;;18.13;99.31;97735.00;109960;1250;58910;-75
2022/08/09 03:57:11;;;;;;;9.50;7.30;;;;;;;18.14;99.82;97734.05;109833;1250;70002;-77
2022/08/09 03:59:51;;;;;;;8.90;7.80;;;;;;;18.15;99.37;97728.98;110191;1250;69542;-76
2022/08/09 04:02:30;;;;;;;11.40;8.00;;;;;;;18.16;98.99;97726.60;109883;1250;69200;-76
2022/08/09 04:05:03;;;;;;;11.00;8.00;;;;;;;18.16;99.79;97725.52;110036;1250;59278;-75
2022/08/09 04:07:42;;;;;;;10.80;8.60;;;;;;;18.15;100.00;97724.52;109865;1250;58843;-75
2022/08/09 04:10:25;;;;;;;10.60;8.50;;;;;;;18.17;100.00;97725.24;109898;1249;70569;-75
2022/08/09 04:13:08;;;;;;;10.50;8.70;;;;;;;18.18;100.00;97724.95;109901;1250;68629;-76
2022/08/09 04:15:40;;;;;;;9.70;7.90;;;;;;;18.19;100.00;97727.20;109926;1250;68637;-75
2022/08/09 04:18:29;;;;;;;;;;;;;;;18.19;100.00;97726.05;109861;1250;58951;-77
2022/08/09 04:20:59;;;;;;;12.30;9.40;;;;;;;18.20;100.00;97725.66;110205;1250;58878;-76
2022/08/09 04:23:31;;;;;;;12.10;9.90;;;;;;;18.19;100.00;97723.23;110019;1249;69936;-76
2022/08/09 04:26:01;;;;;;;;;;;;;;;18.17;100.00;97720.88;109975;1249;69416;-77
2022/08/09 04:28:30;;;;;;;10.90;8.90;;;;;;;18.16;100.00;97717.75;109872;1249;69610;-76
2022/08/09 04:31:09;;;;;;;;;;;;;;;18.17;100.00;97722.23;110129;1250;58874;-77
2022/08/09 04:33:41;;;;;;;12.00;10.10;;;;;;;18.18;100.00;97728.52;109888;1250;58947;-76
2022/08/09 04:36:28;;;;;;;12.00;10.40;;;;;;;18.15;100.00;97734.08;110177;1250;71325;-76
2022/08/09 04:39:04;;;;;;;12.30;9.30;;;;;;;18.13;100.00;97726.70;110214;1249;69431;-77
2022/08/09 04:41:33;;;;;;;10.60;8.80;;;;;;;18.13;100.00;97722.99;110095;1250;70059;-78
2022/08/09 04:44:11;;;;;;;12.30;8.20;;;;;;;18.15;100.00;97722.30;110158;1250;58865;-77
2022/08/09 04:46:42;;;;;;;12.20;10.90;;;;;;;18.16;100.00;97718.84;110056;1250;59381;-77
2022/08/09 04:49:36;;;;;;;9.80;8.80;;;;;;;18.16;100.00;97714.80;110289;1250;70814;-77
2022/08/09 04:52:27;;;;;;;11.70;9.60;;;;;;;18.16;100.00;97713.65;110006;1250;68609;-77
2022/08/09 04:55:00;;;;;;;13.00;10.40;;;;;;;18.19;100.00;97710.45;109998;1250;68972;-76
2022/08/09 04:57:32;;;;;;;13.50;11.10;;;;;;;18.21;100.00;97702.59;110010;1250;59187;-76
2022/08/09 05:00:21;;;;;;;13.50;11.30;;;;;;;18.24;100.00;97700.92;109983;1250;58949;-78
2022/08/09 05:02:51;;;;;;;12.00;9.40;;;;;;;18.26;100.00;97701.58;110023;1250;69855;-76
2022/08/09 05:05:20;;;;;;;13.20;10.50;;;;;;;18.27;99.33;97700.73;110111;1249;69338;-73
2022/08/09 05:08:10;;;;;;;15.40;12.50;;;;;;;18.26;99.17;97699.07;109980;1250;69348;-75
2022/08/09 05:10:42;;;;;;;14.70;12.90;;;;;;;18.25;100.00;97700.30;110009;1249;58971;-77
2022/08/09 05:13:12;;;;;;;16.50;13.20;;;;;;;18.26;100.00;97695.76;110153;1250;58901;-75
2022/08/09 05:15:41;;;;;;;16.00;11.50;;;;;;;18.28;100.00;97699.41;109850;1250;71508;-75
2022/08/09 05:18:15;;;;;;;14.00;12.20;;;;;;;18.32;100.00;97703.47;110039;1250;69501;-75
2022/08/09 05:21:04;;;;;;;16.60;13.80;;;;;;;18.34;100.00;97711.76;109857;1249;69226;-77
2022/08/09 05:23:51;;;;;;;14.50;11.90;;;;;;;18.32;100.00;97707.55;109984;1250;58873;-73
2022/08/09 05:26:30;;;;;;;13.90;11.90;;;;;;;18.30;100.00;97708.26;110040;1250;58900;-75
2022/08/09 05:29:04;;;;;;;13.80;10.90;;;;;;;18.34;100.00;97711.34;109863;1250;70390;-75
2022/08/09 05:31:33;;;;;;;13.70;11.70;;;;;;;18.37;100.00;97715.30;110245;1250;69226;-75
2022/08/09 05:34:15;;;;;;;13.80;11.20;;;;;;;18.39;100.00;97716.95;110096;1249;69646;-75
2022/08/09 05:36:45;;;;;;;11.00;9.40;;;;;;;18.38;100.00;97716.33;110524;1249;58876;-75
2022/08/09 05:39:15;;;;;;;10.40;9.20;;;;;;;18.41;100.00;97717.90;110699;1250;58889;-74
2022/08/09 05:41:57;;;;;;;10.60;9.50;;;;;;;18.48;100.00;97716.00;110003;1250;70578;-76
2022/08/09 05:44:32;;;;;;;11.30;9.50;;;;;;;18.54;100.00;97713.10;110154;1249;69487;-76
2022/08/09 05:47:03;;;;;;;12.30;10.40;;;;;;;18.59;100.00;97705.57;110031;1250;69502;-75
2022/08/09 05:49:33;;;;;;;9.90;8.70;;;;;;;18.63;100.00;97701.98;110061;1249;58903;-74
2022/08/09 05:52:22;;;;;;;12.40;8.50;;;;;;;18.69;100.00;97709.27;110116;1250;58961;-74
2022/08/09 05:54:52;;;;;;;12.70;9.00;;;;;;;18.75;100.00;97708.88;110004;1250;69940;-74
2022/08/09 05:57:22;;;;;;;9.10;8.10;;;;;;;18.81;100.00;97708.59;109970;1249;68604;-73
2022/08/09 06:00:12;;;;;;;11.40;9.50;;;;;;;18.88;100.00;97712.21;110065;1248;69477;-74
2022/08/09 06:02:41;;;;;;;9.00;8.10;;;;;;;18.90;100.00;97719.36;110071;1250;58885;-75
2022/08/09 06:05:14;;;;;;;9.70;7.50;;;;;;;18.93;99.44;97720.98;109962;1250;58899;-75
2022/08/09 06:07:43;;;;;;;9.10;7.70;;;;;;;18.96;99.13;97721.52;109923;1250;70910;-76
2022/08/09 06:10:38;;;;;;;8.90;7.70;;;;;;;19.01;98.37;97720.89;109884;1250;68942;-73
2022/08/09 06:13:11;;;;;;;8.50;7.30;;;;;;;19.02;98.72;97716.50;109836;1250;69244;-73
2022/08/09 06:15:49;;;;;;;9.30;8.30;;;;;;;19.04;98.82;97716.48;109848;1250;58919;-73
2022/08/09 06:18:20;;;;;;;8.70;7.70;;;;;;;19.05;99.03;97712.89;109997;1249;58906;-73
2022/08/09 06:20:55;;;;;;;7.00;6.30;;;;;;;19.08;98.83;97710.97;109936;1250;71222;-73
2022/08/09 06:23:28;;;;;;;8.00;7.20;;;;;;;19.12;98.36;97709.52;109970;1250;68431;-73
2022/08/09 06:26:18;;;;;;;8.80;6.70;;;;;;;19.16;97.58;97708.39;110069;1248;69335;-72
2022/08/09 06:28:51;;;;;;;8.00;7.10;;;;;;;19.19;97.03;97707.42;109900;1250;58990;-73
2022/08/09 06:31:33;;;;;;;9.20;7.70;;;;;;;19.22;96.28;97718.21;109949;1250;58951;-73
2022/08/09 06:34:22;;;;;;;8.50;7.30;;;;;;;19.23;95.90;97724.06;109844;1248;69957;-72
2022/08/09 06:36:57;;;;;;;7.80;6.80;;;;;;;19.24;95.63;97727.67;110240;1250;67446;-75
2022/08/09 06:39:29;;;;;;;8.00;6.40;;;;;;;19.24;95.63;97726.42;110358;1250;68452;-72
2022/08/09 06:42:20;;;;;;;7.60;6.80;;;;;;;19.23;95.59;97729.87;109739;1250;58946;-73
2022/08/09 06:44:57;;;;;;;8.10;7.20;;;;;;;19.26;95.01;97729.63;110092;1250;58886;-75
2022/08/09 06:47:27;;;;;;;8.80;7.80;;;;;;;19.28;95.27;97737.54;110198;1250;71368;-74
2022/08/09 06:50:08;;;;;;;10.20;9.10;;;;;;;19.32;96.75;97737.11;110019;1250;69220;-73
2022/08/09 06:52:46;;;;;;;9.80;8.80;;;;;;;19.33;97.46;97738.23;109945;1250;68881;-73
2022/08/09 06:55:19;;;;;;;10.20;8.70;;;;;;;19.37;98.30;97737.54;110112;1250;58871;-73
2022/08/09 06:57:51;;;;;;;11.20;8.10;;;;;;;19.40;98.21;97739.14;110259;1250;58833;-74
2022/08/09 07:00:34;;;;;;;10.10;8.80;;;;;;;19.46;97.26;97742.58;109743;1250;69842;-72
2022/08/09 07:03:24;;;;;;;11.00;9.20;;;;;;;19.50;96.29;97747.94;109783;1250;69346;-72
2022/08/09 07:05:57;;;;;;;12.10;9.50;;;;;;;19.46;95.88;97751.35;109705;1250;69434;-73
2022/08/09 07:08:33;;;;;;;10.60;9.50;;;;;;;19.44;97.19;97753.74;110022;1250;58881;-72
2022/08/09 07:11:07;;;;;;;9.70;8.70;;;;;;;19.45;96.05;97756.96;110104;1250;58885;-73
2022/08/09 07:13:44;;;;;;;9.10;7.30;;;;;;;19.39;95.73;97758.10;109801;1250;70530;-71
2022/08/09 07:16:33;;;;;;;11.30;9.60;;;;;;;19.44;96.15;97758.88;109984;1250;68459;-73
2022/08/09 07:19:16;;;;;;;12.70;10.20;;;;;;;19.47;96.10;97761.02;109948;1250;68660;-73
2022/08/09 07:21:50;;;;;;;11.80;10.50;;;;;;;19.49;95.96;97755.48;110032;1250;58941;-74
2022/08/09 07:24:29;;;;;;;12.10;10.90;;;;;;;19.50;94.96;97758.08;109869;1250;58951;-73
2022/08/09 07:27:10;;;;;;;13.20;11.70;;;;;;;19.49;94.48;97760.59;110250;1250;69870;-73
2022/08/09 07:30:00;;;;;;;15.80;14.00;;;;;;;19.55;94.26;97767.71;110055;1250;68650;-74
2022/08/09 07:32:29;;;;;;;15.60;13.80;;;;;;;19.48;94.51;97760.55;110130;1250;69228;-74
2022/08/09 07:35:04;;;;;;;18.20;14.90;;;;;;;19.46;95.41;97762.36;110077;1250;58899;-73
2022/08/09 07:37:40;;;;;;;18.60;15.40;;;;;;;19.43;95.70;97761.42;110456;1250;58843;-73
2022/08/09 07:40:16;;;;;;;15.10;13.20;;;;;;;19.45;95.67;97759.61;109973;1250;71296;-74
2022/08/09 07:42:58;;;;;;;16.60;13.10;;;;;;;19.39;96.10;97764.16;110098;1250;69669;-73
2022/08/09 07:45:29;;;;;;;14.00;11.20;;;;;;;19.41;96.84;97763.63;109960;1250;69247;-75
2022/08/09 07:48:09;;;;;;;17.00;13.90;;;;;;;19.47;97.44;97763.48;110066;1250;58939;-74
2022/08/09 07:50:59;;;;;;;19.80;17.00;;;;;;;19.51;96.31;97766.48;110117;1248;58873;-74
2022/08/09 07:53:50;;;;;;;19.70;15.70;;;;;;;19.51;95.52;97768.69;110290;1250;71408;-73
2022/08/09 07:56:36;;;;;;;17.40;13.70;;;;;;;19.53;96.17;97772.98;110258;1248;69407;-74
2022/08/09 07:59:12;;;;;;;15.40;13.60;;;;;;;19.56;96.85;97774.77;109977;1250;69234;-76
2022/08/09 08:01:54;;;;;;;20.30;16.80;;;;;;;19.59;97.55;97780.51;110033;1250;58921;-73
2022/08/09 08:04:23;;;;;;;20.40;18.10;;;;;;;19.61;95.94;97782.07;110132;1250;58876;-72
2022/08/09 08:07:03;;;;;;;16.70;14.70;;;;;;;19.59;95.04;97787.69;110223;1250;69974;-75
2022/08/09 08:09:52;;;;;;;16.80;15.10;;;;;;;19.58;96.40;97788.38;110044;1250;69521;-75
2022/08/09 08:12:38;;;;;;;16.20;13.30;;;;;;;19.60;94.70;97790.95;110072;1250;69259;-75
2022/08/09 08:15:13;;;;;;;11.80;10.20;;;;;;;19.72;95.03;97794.27;110094;1250;58942;-74
2022/08/09 08:17:46;;;;;;;13.30;10.60;;;;;;;19.80;93.81;97798.63;110043;1250;58913;-75
2022/08/09 08:20:28;;;;;;;14.00;12.20;;;;;;;19.86;93.82;97803.46;110059;1249;69963;-75
2022/08/09 08:23:02;;;;;;;12.70;10.60;;;;;;;19.90;94.05;97804.64;110127;1250;70063;-75
2022/08/09 08:25:47;;;;;;;15.30;12.90;;;;;;;19.96;93.23;97806.68;110007;1250;68810;-73
2022/08/09 08:28:22;;;;;;;14.60;12.70;;;;;;;19.96;92.11;97804.02;109899;1250;58920;-74
2022/08/09 08:31:01;;;;;;;13.40;11.70;;;;;;;20.04;91.60;97807.41;109936;1250;58836;-75
2022/08/09 08:33:43;;;;;;;11.80;9.20;;;;;;;20.19;91.58;97805.95;110543;1250;71179;-75
2022/08/09 08:36:24;;;;;;;13.10;11.70;;;;;;;20.30;91.21;97808.85;110360;1248;69455;-74
2022/08/09 08:38:58;;;;;;;15.40;12.30;;;;;;;20.37;90.99;97805.09;110139;1250;68452;-74
2022/08/09 08:41:28;;;;;;;15.30;13.30;;;;;;;20.53;89.92;97803.67;110125;1250;59251;-75
2022/08/09 08:44:20;;;;;;;13.60;10.40;;;;;;;20.59;89.82;97806.84;110210;1250;59022;-72
2022/08/09 08:46:58;;;;;;;12.70;10.50;;;;;;;20.61;87.70;97807.21;110015;1249;70081;-73
2022/08/09 08:49:40;;;;;;;9.10;8.20;;;;;;;20.80;89.60;97806.56;109940;1250;69417;-73
2022/08/09 08:52:21;;;;;;;10.80;9.20;;;;;;;21.03;87.98;97807.79;109938;1250;68807;-74
2022/08/09 08:55:10;;;;;;;11.40;9.30;;;;;;;20.99;84.99;97810.89;110221;1248;58925;-74
2022/08/09 08:57:43;;;;;;;14.00;11.40;;;;;;;21.01;84.64;97809.02;110047;1250;58885;-74
2022/08/09 09:00:30;;;;;;;13.70;11.90;;;;;;;21.14;84.91;97807.45;109885;1250;71919;-74
2022/08/09 09:03:04;;;;;;;12.70;11.40;;;;;;;21.12;85.14;97808.79;110007;1250;68513;-73
2022/08/09 09:05:45;;;;;;;13.40;11.30;;;;;;;21.16;83.90;97806.48;109850;1250;69199;-74
2022/08/09 09:08:36;;;;;;;11.60;10.40;;;;;;;21.43;84.30;97804.98;109851;1250;58939;-73
2022/08/09 09:11:10;;;;;;;12.80;11.60;;;;;;;21.55;83.61;97798.88;109776;1250;58954;-73
2022/08/09 09:13:49;;;;;;;12.10;10.90;;;;;;;21.65;83.37;97799.34;109795;1250;70533;-75
2022/08/09 09:16:30;;;;;;;10.00;9.00;;;;;;;21.63;82.46;97802.87;109758;1250;69358;-73
2022/08/09 09:19:06;;;;;;;12.50;11.20;;;;;;;21.74;82.93;97802.59;109729;1250;68621;-75
2022/08/09 09:22:08;;;;;;;12.20;10.80;;;;;;;21.85;82.38;97799.42;109818;1250;59158;-73
2022/08/09 09:24:45;;;;;;;10.90;9.30;;;;;;;21.93;81.70;97796.16;109704;1250;58851;-75
2022/08/09 09:27:20;;;;;;;8.90;8.00;;;;;;;22.10;81.57;97793.88;109863;1250;71338;-73
2022/08/09 09:30:11;;;;;;;8.70;7.80;;;;;;;22.39;81.66;97794.62;109893;1250;68543;-75
2022/08/09 09:33:11;;;;;;;14.20;10.00;;;;;;;22.57;79.46;97791.36;110047;1249;70036;-74
2022/08/09 09:35:53;;;;;;;9.70;7.80;;;;;;;22.63;79.88;97790.65;109830;1250;58896;-75
2022/08/09 09:38:43;;;;;;;8.50;7.50;;;;;;;22.87;80.12;97787.80;110123;1250;59140;-75
2022/08/09 09:41:27;;;;;;;10.20;8.50;;;;;;;22.94;76.34;97789.71;110084;1250;70001;-74
2022/08/09 09:44:24;;;;;;;8.50;6.50;;;;;;;23.19;76.85;97789.54;109990;1250;69538;-74
2022/08/09 09:47:09;;;;;;;8.60;7.70;;;;;;;23.36;75.89;97792.64;109831;1250;69238;-75
2022/08/09 09:49:38;;;;;;;9.50;8.50;;;;;;;23.58;75.67;97792.60;109878;1250;58890;-74
2022/08/09 09:52:27;;;;;;;9.00;8.00;;;;;;;23.63;73.90;97791.42;109828;1250;58883;-73
2022/08/09 09:55:17;;;;;;;8.90;7.70;;;;;;;23.81;74.84;97791.52;109766;1250;69938;-74
2022/08/09 09:58:06;;;;;;;8.30;7.50;;;;;;;23.87;72.34;97796.67;109798;1250;69194;-73
2022/08/09 10:00:45;;;;;;;7.40;6.70;;;;;;;23.88;72.37;97796.93;109781;1250;69230;-73
2022/08/09 10:03:40;;;;;;;8.60;7.80;;;;;;;23.74;71.39;97793.97;109876;1250;58921;-73
2022/08/09 10:06:12;;;;;;;8.40;7.60;;;;;;;23.78;71.96;97792.95;109759;1249;59126;-73
2022/08/09 10:08:42;;;;;;;7.80;7.00;;;;;;;23.85;72.31;97796.11;109765;1250;70910;-73
2022/08/09 10:11:27;;;;;;;7.10;6.40;;;;;;;23.97;72.81;97799.96;109840;1250;69460;-73
2022/08/09 10:14:24;;;;;;;7.50;6.80;;;;;;;24.11;72.84;97797.71;109809;1250;68786;-74
2022/08/09 10:17:10;;;;;;;9.20;8.00;;;;;;;24.22;72.07;97797.09;109671;1249;58888;-74
2022/08/09 10:20:02;;;;;;;8.70;7.70;;;;;;;24.24;70.66;97791.52;109847;1249;58948;-75
2022/08/09 10:22:37;;;;;;;9.20;8.30;;;;;;;24.24;70.80;97791.48;109811;1250;71177;-73
2022/08/09 10:25:08;;;;;;;10.90;9.40;;;;;;;24.25;70.97;97788.09;109838;1250;69697;-72
2022/08/09 10:27:43;;;;;;;10.40;9.10;;;;;;;24.18;71.06;97786.30;109816;1250;69859;-75
2022/08/09 10:30:26;;;;;;;9.30;8.20;;;;;;;24.18;71.68;97786.29;109969;1251;58885;-74
2022/08/09 10:33:15;;;;;;;11.50;9.80;;;;;;;24.05;71.34;97782.10;109924;1250;58934;-75
2022/08/09 10:36:06;;;;;;;10.10;9.00;;;;;;;23.84;69.83;97779.80;110055;1250;71197;-74
2022/08/09 10:38:46;;;;;;;9.50;8.30;;;;;;;23.60;69.08;97781.52;109800;1250;69419;-75
2022/08/09 10:41:24;;;;;;;8.80;8.00;;;;;;;23.62;70.09;97779.58;109808;1250;69314;-75
2022/08/09 10:43:56;;;;;;;10.80;9.70;;;;;;;23.58;71.09;97778.86;109843;1250;58910;-75
2022/08/09 10:46:48;;;;;;;9.50;8.50;;;;;;;23.56;69.85;97780.44;109794;1250;58906;-75
2022/08/09 10:49:32;;;;;;;11.40;9.30;;;;;;;23.28;70.18;97779.10;109809;1250;70182;-74
2022/08/09 10:53:05;;;;;;;9.70;8.50;;;;;;;23.19;70.66;97776.21;109801;1250;68533;-74
2022/08/09 10:55:38;;;;;;;10.90;9.80;;;;;;;23.14;71.27;97771.84;109725;1251;69974;-76
2022/08/09 10:58:33;;;;;;;10.80;9.50;;;;;;;23.11;70.56;97769.40;110208;1250;58889;-74
2022/08/09 11:01:30;;;;;;;9.60;7.70;;;;;;;23.23;70.45;97770.45;109927;1250;58939;-74
2022/08/09 11:04:26;;;;;;;10.20;9.20;;;;;;;23.39;69.25;97763.41;109913;1250;70571;-74
2022/08/09 11:07:02;;;;;;;10.50;8.30;;;;;;;23.53;69.69;97763.48;109851;1250;68489;-76
2022/08/09 11:09:37;;;;;;;10.40;9.30;;;;;;;23.62;69.02;97762.17;109887;1250;70052;-75
2022/08/09 11:12:17;;;;;;;10.70;9.60;;;;;;;23.72;69.56;97762.64;109873;1250;58974;-75
2022/08/09 11:14:53;;;;;;;8.60;7.70;;;;;;;23.48;70.07;97757.17;109715;1250;58842;-75
2022/08/09 11:17:25;;;;;;;9.30;8.30;;;;;;;23.75;70.18;97758.79;109793;1250;70573;-74
2022/08/09 11:20:08;;;;;;;8.30;7.10;;;;;;;23.92;70.21;97755.14;109808;1250;69295;-75
2022/08/09 11:22:51;;;;;;;9.80;8.70;;;;;;;24.04;70.02;97749.60;109752;1250;69255;-74
2022/08/09 11:25:28;;;;;;;10.30;9.20;;;;;;;24.01;68.93;97748.54;109712;1250;58911;-76
2022/08/09 11:28:33;;;;;;;12.10;10.90;;;;;;;24.07;68.99;97744.41;110347;1250;58893;-75
2022/08/09 11:31:45;;;;;;;8.60;7.80;;;;;;;24.04;68.97;97740.15;109837;1250;70763;-75
2022/08/09 11:34:33;;;;;;;11.40;9.50;;;;;;;23.88;68.27;97740.44;110095;1250;68671;-75
2022/08/09 11:37:03;;;;;;;10.10;9.10;;;;;;;23.89;68.32;97732.02;109915;1249;69252;-75
2022/08/09 11:40:01;;;;;;;11.60;9.90;;;;;;;24.05;67.73;97731.17;109827;1250;59365;-75
2022/08/09 11:42:49;;;;;;;11.90;10.30;;;;;;;24.06;67.43;97727.52;109908;1250;59326;-75
2022/08/09 11:45:22;;;;;;;12.20;11.00;;;;;;;24.02;67.65;97721.39;109942;1250;71425;-76
2022/08/09 11:48:11;;;;;;;11.10;9.60;;;;;;;24.01;66.78;97716.05;109856;1250;68579;-75
2022/08/09 11:50:56;;;;;;;9.90;8.90;;;;;;;23.85;66.67;97711.11;109850;1250;69396;-74
2022/08/09 11:53:45;;;;;;;11.00;9.90;;;;;;;23.90;66.84;97707.95;109824;1250;58944;-74
2022/08/09 11:56:31;;;;;;;10.40;8.80;;;;;;;24.01;67.14;97709.56;109689;1250;58873;-75
2022/08/09 11:59:22;;;;;;;15.70;11.70;;;;;;;24.34;66.84;97706.15;109858;1250;69769;-75
2022/08/09 12:01:58;;;;;;;10.60;9.60;;;;;;;24.48;65.42;97697.33;109802;1251;68947;-74
2022/08/09 12:04:50;;;;;;;8.60;7.70;;;;;;;24.51;63.80;97692.30;109775;1250;68668;-76
2022/08/09 12:07:27;;;;;;;7.90;7.10;;;;;;;24.76;63.33;97689.03;109800;1250;58902;-75
2022/08/09 12:10:11;;;;;;;8.30;7.50;;;;;;;25.01;64.02;97686.17;109737;1251;58913;-75
2022/08/09 12:13:00;;;;;;;7.80;7.10;;;;;;;25.32;62.31;97679.83;109814;1250;70574;-75
2022/08/09 12:15:49;;;;;;;9.80;8.70;;;;;;;25.67;62.02;97675.69;109769;1251;69568;-77
2022/08/09 12:18:20;;;;;;;9.70;8.70;;;;;;;25.94;61.49;97675.13;109854;1250;69672;-75